VIRTUAL NORWEGIAN AEROCLUB

VIRTUAL NORWEGIAN AEROCLUB! A new look to our va.




 METAR AND TAF INFORMATION
METAR FOR EVRA
ADDS - METARS form results

(1229 UTC 29 May 2020)
Data provider http://aviationweather.gov/metar/data/
 
METAR text: EVRA 291220Z 33016KT CAVOK 15/05 Q1024 NOSIG
Conditions at: EVRA (RIGA AIRPORT , LV) observed 1220 UTC 29 May 2020
Temperature: 15.0°C (59°F)
Dewpoint: 5.0°C (41°F) [RH = 51%]
Pressure (altimeter): 30.24 inches Hg (1024.0 mb)
Winds: from the NNW (330 degrees) at 18 MPH (16 knots; 8.2 m/s)
Visibility: 6 or more miles (10+ km)
Ceiling: ceiling and visibility are OK
Clouds: unknown
Weather: no significant weather observed at this time

METAR text: EVRA 291150Z 34017KT CAVOK 15/05 Q1024 NOSIG
Conditions at: EVRA (RIGA AIRPORT , LV) observed 1150 UTC 29 May 2020
Temperature: 15.0°C (59°F)
Dewpoint: 5.0°C (41°F) [RH = 51%]
Pressure (altimeter): 30.24 inches Hg (1024.0 mb)
Winds: from the NNW (340 degrees) at 20 MPH (17 knots; 8.7 m/s)
Visibility: 6 or more miles (10+ km)
Ceiling: ceiling and visibility are OK
Clouds: unknown
Weather: no significant weather observed at this time

Forecast for: EVRA (RIGA AIRPORT , LV)
Text: TAF EVRA 291100Z 2912/3012 34010KT CAVOK
Forecast period: 1200 UTC 29 May 2020 to 1200 UTC 30 May 2020
Forecast type: FROM: standard forecast or significant change
Winds: from the NNW (340 degrees) at 12 MPH (10 knots; 5.1 m/s)
Visibility: 6 or more miles 10+ km)
Ceiling: unknown
Clouds: missing
Weather: NSW  (no significant weather)
Text: TEMPO 2912/2915 35015G30KT
Forecast period: 1200 to 1500 UTC 29 May 2020
Forecast type: TEMPORARY: The following changes expected for less than half the time period
Winds: from the N (350 degrees) at 17 MPH (15 knots; 7.7 m/s)
gusting to 34 MPH (30 knots; 15.4 m/s)
Visibility: missing
Ceiling: unknown
Clouds: missing
Weather: no significant weather forecast for this period

 AIRPORT MAP

 RUNWAY INFORMATION
Runway 18 Runway length 10499 ft Runway width 148 ft
Runway elevation 31 ft Runway displaced threshold 0 ft Runway heading 185
Runway 36 Runway length 10499 ft Runway width 148 ft
Runway elevation 34 ft Runway displaced threshold 0 ft Runway heading 5

 AIRPORT FREQUENCIES
Type APP Name APP Frequency 129.925 MHZ
Type ATIS Name ATIS Frequency 121.2 MHZ
Type GND Name Riga Groun Frequency 118.8 MHZ
Type MISC Name Riga Apron Frequency 131.6 MHZ
Type TWR Name TWR Frequency 118.1 MHZ

 AIRPORT NEAR NAVIGATION AIDS
Type VOR-DME Name Riga Frequency 112050 KHZ
Type VOR-DME Name Riga Frequency 113700 KHZ